createdAt,value
2018-08-12T00:00:18.475Z,99.90
2018-08-12T00:02:47.458Z,99.90
2018-08-12T00:05:16.110Z,99.90
2018-08-12T00:07:44.856Z,99.90
2018-08-12T00:10:13.727Z,99.90
2018-08-12T00:12:42.909Z,99.90
2018-08-12T00:15:13.796Z,99.90
2018-08-12T00:17:42.522Z,99.90
2018-08-12T00:20:14.982Z,99.90
2018-08-12T00:22:43.849Z,99.90
2018-08-12T00:25:15.106Z,99.90
2018-08-12T00:27:43.828Z,99.90
2018-08-12T00:30:13.945Z,99.90
2018-08-12T00:32:42.872Z,99.90
2018-08-12T00:35:13.066Z,99.90
2018-08-12T00:37:42.137Z,99.90
2018-08-12T00:40:13.018Z,99.90
2018-08-12T00:42:41.924Z,99.90
2018-08-12T00:45:15.821Z,99.90
2018-08-12T00:47:44.895Z,99.90
2018-08-12T00:50:14.413Z,99.90
2018-08-12T00:52:43.151Z,99.90
2018-08-12T00:55:13.769Z,99.90
2018-08-12T00:57:43.632Z,99.90
2018-08-12T01:00:14.673Z,99.90
2018-08-12T01:02:43.449Z,99.90
2018-08-12T01:05:13.818Z,99.90
2018-08-12T01:07:42.850Z,99.90
2018-08-12T01:10:12.146Z,99.90
2018-08-12T01:12:40.910Z,99.90
2018-08-12T01:15:32.352Z,99.90
2018-08-12T01:18:02.533Z,99.90
2018-08-12T01:20:31.233Z,99.90
2018-08-12T01:22:59.948Z,99.90
2018-08-12T01:25:28.640Z,99.90
2018-08-12T01:27:57.349Z,99.90
2018-08-12T01:30:26.095Z,99.90
2018-08-12T01:32:54.823Z,99.90
2018-08-12T01:35:23.479Z,99.90
2018-08-12T01:37:52.164Z,99.90
2018-08-12T01:40:20.817Z,99.90
2018-08-12T01:42:49.509Z,99.90
2018-08-12T01:45:19.640Z,99.90
2018-08-12T01:47:48.517Z,99.90
2018-08-12T01:50:18.605Z,99.90
2018-08-12T01:52:47.348Z,99.90
2018-08-12T01:55:16.270Z,99.90
2018-08-12T01:57:45.074Z,99.90
2018-08-12T02:00:16.186Z,99.90
2018-08-12T02:02:45.060Z,99.90
2018-08-12T02:05:13.846Z,99.90
2018-08-12T02:07:42.682Z,99.90
2018-08-12T02:10:11.478Z,99.90
2018-08-12T02:12:40.343Z,99.90
2018-08-12T02:15:10.329Z,99.90
2018-08-12T02:17:39.309Z,99.90
2018-08-12T02:20:08.797Z,99.90
2018-08-12T02:22:38.065Z,99.90
2018-08-12T02:25:07.152Z,99.90
2018-08-12T02:27:35.813Z,99.90
2018-08-12T02:30:05.228Z,99.90
2018-08-12T02:32:33.891Z,99.90
2018-08-12T02:35:02.689Z,99.90
2018-08-12T02:37:31.337Z,99.90
2018-08-12T02:40:00.540Z,99.90
2018-08-12T02:42:29.733Z,99.90
2018-08-12T02:44:59.233Z,99.90
2018-08-12T02:47:27.988Z,99.90
2018-08-12T02:49:56.641Z,99.90
2018-08-12T02:52:25.399Z,99.90
2018-08-12T02:54:54.118Z,99.90
2018-08-12T02:57:22.769Z,99.90
2018-08-12T02:59:51.438Z,99.90
2018-08-12T03:02:20.123Z,99.90
2018-08-12T03:04:48.826Z,99.90
2018-08-12T03:07:17.545Z,99.90
2018-08-12T03:09:46.224Z,99.90
2018-08-12T03:12:14.908Z,99.90
2018-08-12T03:14:43.613Z,99.90
2018-08-12T03:17:12.302Z,99.90
2018-08-12T03:19:40.989Z,99.90
2018-08-12T03:22:09.659Z,99.90
2018-08-12T03:24:38.649Z,99.90
2018-08-12T03:27:07.427Z,99.90
2018-08-12T03:29:36.114Z,99.90
2018-08-12T03:32:04.857Z,99.90
2018-08-12T03:34:33.484Z,99.90
2018-08-12T03:37:02.206Z,99.90
2018-08-12T03:39:30.868Z,99.90
2018-08-12T03:41:59.522Z,99.90
2018-08-12T03:44:28.162Z,99.90
2018-08-12T03:46:56.793Z,99.90
2018-08-12T03:49:25.628Z,99.90
2018-08-12T03:51:54.301Z,99.90
2018-08-12T03:54:22.958Z,99.90
2018-08-12T03:56:51.670Z,99.90
2018-08-12T03:59:20.357Z,99.90
2018-08-12T04:01:49.030Z,99.90
2018-08-12T04:04:17.680Z,99.90
2018-08-12T04:06:46.361Z,99.90
2018-08-12T04:09:15.070Z,99.90
2018-08-12T04:11:43.769Z,99.90
2018-08-12T04:14:12.920Z,99.90
2018-08-12T04:16:45.745Z,99.90
2018-08-12T04:19:14.446Z,99.90
2018-08-12T04:21:43.082Z,99.90
2018-08-12T04:24:11.799Z,99.90
2018-08-12T04:26:40.488Z,99.90
2018-08-12T04:29:09.137Z,99.90
2018-08-12T04:31:37.851Z,99.90
2018-08-12T04:34:06.566Z,99.90
2018-08-12T04:36:35.402Z,99.90
2018-08-12T04:39:05.720Z,99.90
2018-08-12T04:41:41.990Z,99.90
2018-08-12T04:44:10.641Z,99.90
2018-08-12T04:46:39.461Z,99.90
2018-08-12T04:49:09.220Z,99.90
2018-08-12T04:51:37.958Z,99.90
2018-08-12T04:54:07.003Z,99.90
2018-08-12T04:56:35.668Z,99.90
2018-08-12T04:59:04.894Z,99.90
2018-08-12T05:01:33.582Z,99.90
2018-08-12T05:04:02.267Z,99.90
2018-08-12T05:06:30.953Z,99.90
2018-08-12T05:08:59.633Z,99.90
2018-08-12T05:11:31.236Z,99.90
2018-08-12T05:13:59.895Z,99.90
2018-08-12T05:16:28.557Z,99.90
2018-08-12T05:18:57.241Z,99.90
2018-08-12T05:21:25.905Z,99.90
2018-08-12T05:23:54.545Z,99.90
2018-08-12T05:26:23.241Z,99.90
2018-08-12T05:28:51.887Z,99.90
2018-08-12T05:31:20.656Z,99.90
2018-08-12T05:33:49.285Z,99.90
2018-08-12T05:36:18.041Z,99.90
2018-08-12T05:38:46.697Z,99.90
2018-08-12T05:41:15.337Z,99.90
2018-08-12T05:43:44.032Z,99.90
2018-08-12T05:46:12.677Z,99.90
2018-08-12T05:48:41.359Z,99.90
2018-08-12T05:51:10.348Z,99.90
2018-08-12T05:53:38.937Z,99.90
2018-08-12T05:56:07.553Z,99.90
2018-08-12T05:58:36.300Z,99.90
2018-08-12T06:01:05.039Z,99.90
2018-08-12T06:03:33.877Z,99.90
2018-08-12T06:06:02.511Z,99.90
2018-08-12T06:08:31.156Z,99.90
2018-08-12T06:10:59.823Z,99.90
2018-08-12T06:13:28.504Z,99.90
2018-08-12T06:15:57.157Z,99.90
2018-08-12T06:18:25.770Z,99.90
2018-08-12T06:20:54.437Z,99.90
2018-08-12T06:23:23.132Z,99.90
2018-08-12T06:25:51.836Z,99.90
2018-08-12T06:28:21.037Z,99.90
2018-08-12T06:30:49.657Z,99.90
2018-08-12T06:33:18.349Z,99.90
2018-08-12T06:35:47.071Z,99.90
2018-08-12T06:38:15.733Z,99.90
2018-08-12T06:40:44.589Z,99.90
2018-08-12T06:43:13.335Z,99.90
2018-08-12T06:45:41.974Z,99.90
2018-08-12T06:48:10.725Z,99.90
2018-08-12T06:50:39.358Z,99.90
2018-08-12T06:53:08.039Z,99.90
2018-08-12T06:55:36.718Z,99.80
2018-08-12T06:58:05.509Z,99.20
2018-08-12T07:00:34.185Z,98.80
2018-08-12T07:03:03.171Z,98.40
2018-08-12T07:05:32.016Z,98.30
2018-08-12T07:08:00.748Z,97.50
2018-08-12T07:10:29.404Z,97.50
2018-08-12T07:12:58.063Z,97.30
2018-08-12T07:15:26.703Z,96.00
2018-08-12T07:17:55.404Z,95.90
2018-08-12T07:20:24.014Z,95.80
2018-08-12T07:22:52.750Z,94.80
2018-08-12T07:25:21.913Z,95.30
2018-08-12T07:27:50.554Z,94.90
2018-08-12T07:30:19.221Z,94.40
2018-08-12T07:32:47.859Z,94.60
2018-08-12T07:35:16.887Z,94.40
2018-08-12T07:37:45.590Z,94.40
2018-08-12T07:40:20.255Z,94.40
2018-08-12T07:42:50.088Z,94.10
2018-08-12T07:45:18.758Z,93.10
2018-08-12T07:47:47.491Z,93.00
2018-08-12T07:50:16.249Z,92.50
2018-08-12T07:52:45.652Z,92.30
2018-08-12T07:55:14.901Z,92.10
2018-08-12T07:57:44.325Z,91.80
2018-08-12T08:00:16.477Z,91.80
2018-08-12T08:02:45.233Z,91.20
2018-08-12T08:05:13.940Z,90.60
2018-08-12T08:07:42.755Z,90.30
2018-08-12T08:10:14.692Z,89.60
2018-08-12T08:12:43.482Z,86.90
2018-08-12T08:15:15.306Z,86.20
2018-08-12T08:17:44.097Z,85.80
2018-08-12T08:20:14.166Z,85.00
2018-08-12T08:22:43.337Z,82.90
2018-08-12T08:25:12.466Z,82.30
2018-08-12T08:27:41.305Z,82.60
2018-08-12T08:30:12.093Z,81.80
2018-08-12T08:32:40.880Z,78.80
2018-08-12T08:35:10.176Z,79.20
2018-08-12T08:37:38.827Z,78.20
2018-08-12T08:40:11.347Z,75.00
2018-08-12T08:42:40.123Z,74.50
2018-08-12T08:45:14.472Z,74.40
2018-08-12T08:47:44.324Z,70.30
2018-08-12T08:50:13.078Z,68.30
2018-08-12T08:52:41.726Z,68.70
2018-08-12T08:55:11.802Z,67.50
2018-08-12T08:57:40.495Z,67.00
2018-08-12T09:00:11.484Z,65.50
2018-08-12T09:02:40.689Z,63.80
2018-08-12T09:05:10.971Z,60.90
2018-08-12T09:07:40.138Z,59.70
2018-08-12T09:10:10.621Z,58.10
2018-08-12T09:12:39.520Z,58.90
2018-08-12T09:15:10.308Z,59.20
2018-08-12T09:17:39.479Z,59.10
2018-08-12T09:20:10.515Z,57.80
2018-08-12T09:22:39.281Z,57.90
2018-08-12T09:25:09.065Z,57.30
2018-08-12T09:27:38.188Z,57.00
2018-08-12T09:30:11.586Z,57.70
2018-08-12T09:32:40.518Z,56.40
2018-08-12T09:35:09.229Z,56.00
2018-08-12T09:37:38.194Z,55.70
2018-08-12T09:40:10.265Z,54.80
2018-08-12T09:42:38.989Z,53.30
2018-08-12T09:45:09.448Z,53.00
2018-08-12T09:47:38.471Z,53.70
2018-08-12T09:50:07.996Z,53.20
2018-08-12T09:52:37.118Z,52.30
2018-08-12T09:55:06.101Z,51.50
2018-08-12T09:57:35.116Z,52.00
2018-08-12T10:00:05.242Z,51.30
2018-08-12T10:02:33.886Z,50.50
2018-08-12T10:05:02.612Z,50.50
2018-08-12T10:07:31.271Z,50.50
2018-08-12T10:09:59.969Z,51.70
2018-08-12T10:12:28.652Z,50.50
2018-08-12T10:14:57.325Z,50.20
2018-08-12T10:17:26.022Z,51.60
2018-08-12T10:19:54.748Z,49.70
2018-08-12T10:22:23.489Z,49.60
2018-08-12T10:24:52.377Z,49.70
2018-08-12T10:27:21.034Z,49.20
2018-08-12T10:29:49.713Z,49.50
2018-08-12T10:32:18.388Z,48.60
2018-08-12T10:34:47.767Z,49.00
2018-08-12T10:37:16.430Z,48.20
2018-08-12T10:39:45.096Z,48.30
2018-08-12T10:42:13.781Z,47.30
2018-08-12T10:44:42.578Z,47.60
2018-08-12T10:47:11.288Z,46.40
2018-08-12T10:49:39.981Z,46.50
2018-08-12T10:52:08.752Z,46.90
2018-08-12T10:54:37.449Z,44.60
2018-08-12T10:57:06.245Z,45.80
2018-08-12T10:59:35.050Z,45.40
2018-08-12T11:02:03.951Z,44.90
2018-08-12T11:04:32.701Z,45.20
2018-08-12T11:07:01.634Z,43.60
2018-08-12T11:09:30.333Z,44.10
2018-08-12T11:11:59.032Z,44.00
2018-08-12T11:14:27.695Z,43.50
2018-08-12T11:16:56.333Z,43.90
2018-08-12T11:19:25.165Z,43.90
2018-08-12T11:21:53.842Z,44.00
2018-08-12T11:24:22.520Z,44.50
2018-08-12T11:26:51.190Z,44.00
2018-08-12T11:29:19.837Z,44.30
2018-08-12T11:31:48.465Z,42.90
2018-08-12T11:34:17.201Z,43.10
2018-08-12T11:36:45.944Z,43.00
2018-08-12T11:39:14.586Z,43.00
2018-08-12T11:41:43.352Z,42.00
2018-08-12T11:44:12.014Z,41.60
2018-08-12T11:46:40.669Z,41.10
2018-08-12T11:49:09.330Z,42.10
2018-08-12T11:51:38.029Z,41.10
2018-08-12T11:54:06.686Z,41.50
2018-08-12T11:56:35.430Z,40.70
2018-08-12T11:59:04.811Z,40.40
2018-08-12T12:01:33.478Z,40.50
2018-08-12T12:04:02.343Z,41.00
2018-08-12T12:06:31.037Z,39.30
2018-08-12T12:08:59.704Z,39.30
2018-08-12T12:11:28.405Z,37.90
2018-08-12T12:13:57.030Z,38.50
2018-08-12T12:16:25.686Z,38.60
2018-08-12T12:18:54.421Z,37.90
2018-08-12T12:21:23.110Z,38.80
2018-08-12T12:23:51.728Z,37.80
2018-08-12T12:26:20.449Z,37.70
2018-08-12T12:28:49.084Z,37.70
2018-08-12T12:31:17.723Z,36.00
2018-08-12T12:33:46.395Z,35.80
2018-08-12T12:36:15.050Z,35.40
2018-08-12T12:38:44.116Z,34.90
2018-08-12T12:41:12.885Z,35.00
2018-08-12T12:43:41.587Z,34.40
2018-08-12T12:46:10.285Z,34.40
2018-08-12T12:48:38.974Z,34.60
2018-08-12T12:51:07.737Z,34.90
2018-08-12T12:53:36.363Z,35.00
2018-08-12T12:56:05.102Z,34.40
2018-08-12T12:58:33.833Z,34.30
2018-08-12T13:01:02.536Z,34.10
2018-08-12T13:03:31.231Z,32.80
2018-08-12T13:05:59.909Z,34.40
2018-08-12T13:08:28.566Z,31.80
2018-08-12T13:10:57.451Z,32.00
2018-08-12T13:13:26.130Z,31.60
2018-08-12T13:15:54.817Z,31.30
2018-08-12T13:18:23.490Z,31.40
2018-08-12T13:20:52.173Z,31.00
2018-08-12T13:23:20.868Z,31.20
2018-08-12T13:25:49.518Z,30.40
2018-08-12T13:28:18.180Z,31.70
2018-08-12T13:30:46.856Z,30.40
2018-08-12T13:33:16.156Z,30.60
2018-08-12T13:35:44.801Z,31.10
2018-08-12T13:38:13.700Z,31.60
2018-08-12T13:40:42.396Z,30.80
2018-08-12T13:43:11.094Z,30.40
2018-08-12T13:45:39.774Z,29.60
2018-08-12T13:48:08.541Z,29.70
2018-08-12T13:50:37.296Z,30.50
2018-08-12T13:53:05.998Z,29.80
2018-08-12T13:55:34.673Z,30.40
2018-08-12T13:58:03.391Z,29.90
2018-08-12T14:00:32.129Z,29.20
2018-08-12T14:03:00.869Z,28.90
2018-08-12T14:05:29.581Z,29.20
2018-08-12T14:07:58.238Z,29.10
2018-08-12T14:10:26.909Z,28.90
2018-08-12T14:12:55.587Z,28.40
2018-08-12T14:15:24.236Z,27.70
2018-08-12T14:17:52.929Z,27.80
2018-08-12T14:20:22.152Z,27.60
2018-08-12T14:22:51.091Z,27.50
2018-08-12T14:25:19.725Z,27.50
2018-08-12T14:27:48.394Z,27.70
2018-08-12T14:30:19.209Z,27.50
2018-08-12T14:32:48.444Z,26.70
2018-08-12T14:35:17.176Z,26.90
2018-08-12T14:37:45.916Z,27.10
2018-08-12T14:40:15.334Z,26.30
2018-08-12T14:42:44.413Z,26.20
2018-08-12T14:45:13.885Z,27.70
2018-08-12T14:47:42.901Z,27.40
2018-08-12T14:50:13.229Z,26.30
2018-08-12T14:52:42.129Z,26.00
2018-08-12T14:55:11.729Z,25.70
2018-08-12T14:57:40.962Z,26.30
2018-08-12T15:00:12.308Z,26.30
2018-08-12T15:02:40.960Z,26.40
2018-08-12T15:05:09.699Z,26.40
2018-08-12T15:07:38.466Z,26.20
2018-08-12T15:10:08.937Z,26.20
2018-08-12T15:12:37.745Z,26.20
2018-08-12T15:15:07.719Z,25.70
2018-08-12T15:17:36.407Z,26.40
2018-08-12T15:20:05.527Z,25.80
2018-08-12T15:22:34.241Z,25.90
2018-08-12T15:25:02.975Z,25.70
2018-08-12T15:27:31.666Z,25.70
2018-08-12T15:30:00.278Z,26.10
2018-08-12T15:32:29.111Z,26.30
2018-08-12T15:34:57.806Z,26.20
2018-08-12T15:37:26.442Z,26.30
2018-08-12T15:39:55.134Z,26.70
2018-08-12T15:42:23.860Z,26.80
2018-08-12T15:44:52.593Z,26.10
2018-08-12T15:47:21.233Z,26.00
2018-08-12T15:49:49.984Z,26.00
2018-08-12T15:52:18.625Z,26.00
2018-08-12T15:54:48.427Z,26.30
2018-08-12T15:57:17.073Z,26.10
2018-08-12T15:59:45.900Z,26.00
2018-08-12T16:02:14.595Z,26.20
2018-08-12T16:04:43.293Z,26.20
2018-08-12T16:07:11.945Z,25.80
2018-08-12T16:09:40.632Z,25.90
2018-08-12T16:12:09.779Z,25.80
2018-08-12T16:14:38.573Z,25.80
2018-08-12T16:17:07.447Z,26.00
2018-08-12T16:19:36.099Z,25.70
2018-08-12T16:22:04.862Z,25.70
2018-08-12T16:24:33.629Z,26.10
2018-08-12T16:27:02.293Z,25.70
2018-08-12T16:29:30.951Z,25.30
2018-08-12T16:31:59.606Z,25.70
2018-08-12T16:34:28.313Z,26.10
2018-08-12T16:36:56.974Z,26.60
2018-08-12T16:39:25.661Z,26.50
2018-08-12T16:41:54.435Z,27.00
2018-08-12T16:44:23.159Z,27.00
2018-08-12T16:46:51.865Z,27.40
2018-08-12T16:49:20.727Z,26.80
2018-08-12T16:51:49.369Z,27.10
2018-08-12T16:54:18.026Z,26.70
2018-08-12T16:56:46.810Z,26.90
2018-08-12T16:59:15.424Z,27.00
2018-08-12T17:01:44.136Z,26.80
2018-08-12T17:04:12.910Z,26.80
2018-08-12T17:06:41.565Z,26.60
2018-08-12T17:09:11.621Z,26.40
2018-08-12T17:11:40.313Z,26.10
2018-08-12T17:14:09.438Z,26.70
2018-08-12T17:16:38.122Z,26.40
2018-08-12T17:19:06.834Z,26.60
2018-08-12T17:21:35.488Z,26.80
2018-08-12T17:24:04.115Z,27.00
2018-08-12T17:26:32.829Z,26.90
2018-08-12T17:29:01.565Z,27.60
2018-08-12T17:31:30.237Z,27.40
2018-08-12T17:33:58.978Z,27.70
2018-08-12T17:36:27.636Z,28.00
2018-08-12T17:38:56.326Z,28.70
2018-08-12T17:41:25.005Z,28.90
2018-08-12T17:43:53.713Z,29.50
2018-08-12T17:46:22.407Z,29.60
2018-08-12T17:48:51.213Z,30.10
2018-08-12T17:51:19.927Z,30.10
2018-08-12T17:53:48.596Z,30.50
2018-08-12T17:56:17.674Z,30.30
2018-08-12T17:58:46.349Z,30.50
2018-08-12T18:01:15.017Z,30.50
2018-08-12T18:03:43.683Z,30.70
2018-08-12T18:06:12.323Z,32.10
2018-08-12T18:08:41.032Z,32.00
2018-08-12T18:11:09.706Z,32.50
2018-08-12T18:13:38.393Z,34.20
2018-08-12T18:16:07.052Z,35.10
2018-08-12T18:18:35.734Z,36.10
2018-08-12T18:21:04.446Z,37.00
2018-08-12T18:23:34.031Z,37.40
2018-08-12T18:26:03.918Z,38.80
2018-08-12T18:28:32.765Z,38.60
2018-08-12T18:31:01.551Z,37.80
2018-08-12T18:33:30.317Z,38.10
2018-08-12T18:36:03.405Z,38.50
2018-08-12T18:38:32.112Z,39.00
2018-08-12T18:41:00.833Z,40.80
2018-08-12T18:43:29.551Z,40.80
2018-08-12T18:45:58.214Z,41.10
2018-08-12T18:48:26.905Z,41.00
2018-08-12T18:50:55.584Z,41.50
2018-08-12T18:59:11.583Z,42.10
2018-08-12T19:01:40.612Z,42.30
2018-08-12T19:04:09.305Z,43.70
2018-08-12T19:06:37.986Z,43.20
2018-08-12T19:09:09.519Z,42.70
2018-08-12T19:11:39.111Z,43.10
2018-08-12T19:14:08.237Z,43.90
2018-08-12T19:16:37.066Z,44.90
2018-08-12T19:19:05.894Z,45.00
2018-08-12T19:21:34.578Z,44.90
2018-08-12T19:24:03.834Z,45.20
2018-08-12T19:26:32.513Z,45.40
2018-08-12T19:29:01.641Z,46.00
2018-08-12T19:31:30.250Z,46.20
2018-08-12T19:33:58.945Z,46.90
2018-08-12T19:36:27.586Z,46.40
2018-08-12T19:38:56.406Z,46.70
2018-08-12T19:41:25.335Z,47.60
2018-08-12T19:43:53.913Z,47.50
2018-08-12T19:46:22.533Z,47.90
2018-08-12T19:48:51.201Z,48.10
2018-08-12T19:51:19.990Z,48.50
2018-08-12T19:53:48.654Z,48.60
2018-08-12T19:56:17.305Z,49.60
2018-08-12T19:58:45.938Z,49.70
2018-08-12T20:01:14.606Z,49.80
2018-08-12T20:03:43.230Z,49.90
2018-08-12T20:06:11.855Z,50.10
2018-08-12T20:08:40.542Z,50.30
2018-08-12T20:11:09.197Z,50.50
2018-08-12T20:13:37.950Z,50.80
2018-08-12T20:16:06.654Z,51.10
2018-08-12T20:18:35.376Z,51.40
2018-08-12T20:21:03.966Z,51.70
2018-08-12T20:23:32.630Z,52.10
2018-08-12T20:26:01.609Z,52.40
2018-08-12T20:28:30.427Z,52.90
2018-08-12T20:30:59.092Z,53.00
2018-08-12T20:33:28.111Z,53.30
2018-08-12T20:35:56.793Z,53.60
2018-08-12T20:38:25.508Z,53.70
2018-08-12T20:40:54.193Z,54.10
2018-08-12T20:43:22.901Z,54.20
2018-08-12T20:45:51.696Z,54.40
2018-08-12T20:48:20.392Z,54.90
2018-08-12T20:50:49.032Z,55.20
2018-08-12T20:53:17.685Z,55.90
2018-08-12T20:55:46.339Z,56.40
2018-08-12T20:58:14.994Z,56.70
2018-08-12T21:00:43.650Z,57.40
2018-08-12T21:03:12.284Z,57.60
2018-08-12T21:05:40.966Z,58.20
2018-08-12T21:08:09.617Z,58.10
2018-08-12T21:10:38.309Z,58.60
2018-08-12T21:13:06.998Z,58.80
2018-08-12T21:15:35.625Z,59.70
2018-08-12T21:18:04.334Z,59.90
2018-08-12T21:20:32.961Z,61.40
2018-08-12T21:23:01.901Z,61.80
2018-08-12T21:25:30.841Z,61.70
2018-08-12T21:27:59.472Z,61.40
2018-08-12T21:30:28.130Z,61.60
2018-08-12T21:32:56.762Z,61.90
2018-08-12T21:35:25.642Z,62.40
2018-08-12T21:37:54.290Z,63.50
2018-08-12T21:40:22.946Z,63.80
2018-08-12T21:42:51.670Z,65.10
2018-08-12T21:45:20.363Z,66.80
2018-08-12T21:47:49.033Z,67.00
2018-08-12T21:50:17.659Z,68.00
2018-08-12T21:52:46.366Z,69.00
2018-08-12T21:55:14.985Z,69.40
2018-08-12T21:57:43.645Z,70.70
2018-08-12T22:00:14.723Z,71.80
2018-08-12T22:02:44.493Z,73.10
2018-08-12T22:05:13.294Z,73.90
2018-08-12T22:07:41.917Z,74.60
2018-08-12T22:10:10.569Z,74.80
2018-08-12T22:12:39.233Z,74.40
2018-08-12T22:15:08.582Z,74.30
2018-08-12T22:17:37.859Z,75.60
2018-08-12T22:20:06.653Z,76.10
2018-08-12T22:22:35.314Z,76.80
2018-08-12T22:25:10.622Z,76.60
2018-08-12T22:27:39.227Z,75.90
2018-08-12T22:30:11.424Z,76.60
2018-08-12T22:32:40.068Z,76.90
2018-08-12T22:35:08.758Z,76.20
2018-08-12T22:37:37.433Z,76.50
2018-08-12T22:40:06.454Z,77.40
2018-08-12T22:42:35.240Z,78.20
2018-08-12T22:45:04.542Z,79.10
2018-08-12T22:47:33.209Z,79.20
2018-08-12T22:50:02.610Z,79.60
2018-08-12T22:52:31.240Z,79.50
2018-08-12T22:54:59.882Z,78.90
2018-08-12T22:57:28.509Z,79.00
2018-08-12T22:59:57.149Z,82.20
2018-08-12T23:02:25.845Z,84.40
2018-08-12T23:04:54.492Z,85.90
2018-08-12T23:07:23.487Z,86.70
2018-08-12T23:09:52.197Z,88.20
2018-08-12T23:12:20.816Z,88.50
2018-08-12T23:14:49.490Z,89.70
2018-08-12T23:17:18.179Z,90.10
2018-08-12T23:19:46.820Z,90.50
2018-08-12T23:22:15.538Z,90.70
2018-08-12T23:24:44.169Z,90.60
2018-08-12T23:27:12.773Z,90.90
2018-08-12T23:29:41.402Z,90.90
2018-08-12T23:32:10.042Z,91.10
2018-08-12T23:34:38.701Z,91.70
2018-08-12T23:37:07.396Z,91.90
2018-08-12T23:39:36.082Z,92.10
2018-08-12T23:42:04.761Z,92.40
2018-08-12T23:44:33.367Z,92.40
2018-08-12T23:47:02.069Z,92.50
2018-08-12T23:49:30.743Z,92.30
2018-08-12T23:51:59.349Z,92.60
2018-08-12T23:54:28.023Z,93.40
2018-08-12T23:56:56.672Z,93.50
2018-08-12T23:59:25.325Z,93.80
